Time;durP1;ratioP1;P1;durP2;ratioP2;P2;SDS_P1;SDS_P2;PMS_P1;PMS_P2;Temp;Humidity;BMP_temperature;BMP_pressure;BME280_temperature;BME280_humidity;BME280_pressure;Samples;Min_cycle;Max_cycle;Signal;HPM_P1;HPM_P2
2023/06/18 00:01:46;;;;;;;9.93;7.15;;;;;;;;;;5084387;28;20193;-70
2023/06/18 00:04:13;;;;;;;8.60;6.43;;;;;;;;;;5084696;28;20214;-70
2023/06/18 00:06:39;;;;;;;10.95;7.05;;;;;;;;;;5084797;28;20196;-70
2023/06/18 00:09:05;;;;;;;7.50;6.63;;;;;;;;;;5084231;28;20204;-70
2023/06/18 00:11:33;;;;;;;9.27;6.65;;;;;;;;;;5084605;28;20431;-70
2023/06/18 00:13:59;;;;;;;8.40;6.55;;;;;;;;;;5084460;28;20202;-70
2023/06/18 00:16:26;;;;;;;7.10;6.50;;;;;;;;;;5084236;28;20201;-70
2023/06/18 00:18:52;;;;;;;7.63;6.50;;;;;;;;;;5084335;28;20196;-70
2023/06/18 00:21:18;;;;;;;7.40;6.70;;;;;;;;;;5084465;28;20395;-70
2023/06/18 00:23:44;;;;;;;7.40;6.70;;;;;;;;;;5084511;28;20215;-70
2023/06/18 00:26:11;;;;;;;7.40;6.80;;;;;;;;;;5084195;28;20341;-70
2023/06/18 00:28:38;;;;;;;7.15;6.47;;;;;;;;;;5083903;28;20216;-70
2023/06/18 00:31:05;;;;;;;7.68;6.88;;;;;;;;;;5084002;28;20275;-70
2023/06/18 00:33:33;;;;;;;7.80;6.97;;;;;;;;;;5084242;28;20216;-70
2023/06/18 00:35:59;;;;;;;8.32;6.88;;;;;;;;;;5084003;28;20231;-70
2023/06/18 00:38:26;;;;;;;8.43;6.75;;;;;;;;;;5083669;28;20196;-71
2023/06/18 00:40:53;;;;;;;8.00;7.18;;;;;;;;;;5084032;28;20268;-70
2023/06/18 00:43:19;;;;;;;10.38;7.22;;;;;;;;;;5083819;28;20197;-70
2023/06/18 00:45:47;;;;;;;8.30;6.78;;;;;;;;;;5084029;28;20205;-70
2023/06/18 00:48:13;;;;;;;7.55;6.63;;;;;;;;;;5083559;28;20204;-70
2023/06/18 00:50:40;;;;;;;8.35;7.13;;;;;;;;;;5083790;28;20196;-70
2023/06/18 00:53:07;;;;;;;8.00;7.20;;;;;;;;;;5083670;28;20216;-70
2023/06/18 00:55:37;;;;;;;8.10;6.38;;;;;;;;;;5083720;28;20200;-70
2023/06/18 00:58:05;;;;;;;7.68;6.88;;;;;;;;;;5083365;28;20267;-70
2023/06/18 01:00:32;;;;;;;7.72;7.03;;;;;;;;;;5083583;28;20201;-70
2023/06/18 01:03:02;;;;;;;7.72;6.90;;;;;;;;;;5083574;28;20192;-70
2023/06/18 01:05:31;;;;;;;7.55;6.93;;;;;;;;;;5083536;28;20208;-70
2023/06/18 01:07:59;;;;;;;7.55;6.85;;;;;;;;;;5083166;28;20632;-70
2023/06/18 01:10:29;;;;;;;7.35;6.72;;;;;;;;;;5083427;28;20197;-70
2023/06/18 01:12:57;;;;;;;7.72;6.22;;;;;;;;;;5083144;28;20508;-70
2023/06/18 01:15:26;;;;;;;8.95;6.55;;;;;;;;;;5083023;28;20196;-70
2023/06/18 01:17:53;;;;;;;8.73;7.10;;;;;;;;;;5083030;28;20203;-70
2023/06/18 01:20:21;;;;;;;7.78;7.03;;;;;;;;;;5083375;28;20197;-70
2023/06/18 01:22:51;;;;;;;8.18;6.40;;;;;;;;;;5083228;28;20231;-70
2023/06/18 01:25:19;;;;;;;8.00;7.22;;;;;;;;;;5083066;28;20264;-70
2023/06/18 01:27:46;;;;;;;9.05;7.57;;;;;;;;;;5082979;28;20217;-70
2023/06/18 01:30:13;;;;;;;7.70;7.05;;;;;;;;;;5082856;28;20267;-70
2023/06/18 01:32:40;;;;;;;8.07;7.28;;;;;;;;;;5083007;28;20226;-70
2023/06/18 01:35:07;;;;;;;7.60;6.72;;;;;;;;;;5082916;28;20488;-70
2023/06/18 01:37:44;;;;;;;7.90;6.78;;;;;;;;;;5082392;28;20242;-70
2023/06/18 01:40:18;;;;;;;9.32;7.00;;;;;;;;;;5083004;28;20224;-70
2023/06/18 01:42:49;;;;;;;8.00;7.25;;;;;;;;;;5082560;28;20192;-70
2023/06/18 01:45:18;;;;;;;8.73;7.45;;;;;;;;;;5082534;28;20237;-70
2023/06/18 01:47:45;;;;;;;8.95;7.38;;;;;;;;;;5082702;28;20550;-70
2023/06/18 01:50:13;;;;;;;11.25;7.38;;;;;;;;;;5082752;28;20197;-70
2023/06/18 01:52:42;;;;;;;8.13;7.35;;;;;;;;;;5082645;28;20377;-70
2023/06/18 01:55:10;;;;;;;8.05;7.35;;;;;;;;;;5082675;28;20421;-70
2023/06/18 01:57:36;;;;;;;8.07;7.28;;;;;;;;;;5082244;28;20310;-70
2023/06/18 02:00:04;;;;;;;8.73;7.13;;;;;;;;;;5082767;28;20242;-70
2023/06/18 02:02:30;;;;;;;8.02;7.32;;;;;;;;;;5082640;28;20216;-70
2023/06/18 02:04:57;;;;;;;8.60;7.10;;;;;;;;;;5082657;28;20197;-70
2023/06/18 02:07:23;;;;;;;8.98;7.30;;;;;;;;;;5082237;28;20201;-70
2023/06/18 02:09:50;;;;;;;7.85;7.00;;;;;;;;;;5082343;28;20265;-70
2023/06/18 02:12:17;;;;;;;8.30;6.95;;;;;;;;;;5082094;28;20422;-70
2023/06/18 02:14:43;;;;;;;8.40;7.03;;;;;;;;;;5082591;28;20196;-70
2023/06/18 02:17:10;;;;;;;9.60;7.25;;;;;;;;;;5082415;28;20197;-70
2023/06/18 02:19:36;;;;;;;7.75;7.05;;;;;;;;;;5082495;28;20373;-70
2023/06/18 02:22:03;;;;;;;7.97;7.28;;;;;;;;;;5082063;28;20203;-70
2023/06/18 02:24:31;;;;;;;7.63;6.93;;;;;;;;;;5081925;28;20200;-70
2023/06/18 02:26:58;;;;;;;7.72;7.10;;;;;;;;;;5082022;28;20271;-70
2023/06/18 02:29:24;;;;;;;8.48;7.68;;;;;;;;;;5082129;28;20196;-70
2023/06/18 02:31:51;;;;;;;8.98;7.35;;;;;;;;;;5082034;28;20196;-70
2023/06/18 02:34:18;;;;;;;7.60;6.95;;;;;;;;;;5081990;28;20220;-70
2023/06/18 02:36:44;;;;;;;7.70;6.93;;;;;;;;;;5081995;28;20235;-69
2023/06/18 02:39:10;;;;;;;7.57;6.93;;;;;;;;;;5081907;28;20365;-69
2023/06/18 02:41:37;;;;;;;8.68;7.55;;;;;;;;;;5082052;28;20204;-69
2023/06/18 02:44:05;;;;;;;7.93;7.15;;;;;;;;;;5082050;28;20218;-69
2023/06/18 02:46:31;;;;;;;7.47;6.72;;;;;;;;;;5082040;28;20196;-69
2023/06/18 02:48:57;;;;;;;7.70;6.97;;;;;;;;;;5081776;28;20203;-69
2023/06/18 02:51:23;;;;;;;8.88;7.43;;;;;;;;;;5081964;28;20257;-69
2023/06/18 02:53:50;;;;;;;7.93;7.13;;;;;;;;;;5081755;28;20239;-69
2023/06/18 02:56:17;;;;;;;7.30;6.70;;;;;;;;;;5082077;28;20531;-69
2023/06/18 02:58:43;;;;;;;8.13;7.40;;;;;;;;;;5081561;28;20282;-69
2023/06/18 03:01:11;;;;;;;8.05;7.32;;;;;;;;;;5081808;28;20204;-69
2023/06/18 03:03:38;;;;;;;8.63;7.40;;;;;;;;;;5081871;28;20238;-69
2023/06/18 03:06:04;;;;;;;7.78;7.07;;;;;;;;;;5081784;28;20269;-69
2023/06/18 03:08:31;;;;;;;7.85;7.15;;;;;;;;;;5081482;28;20216;-69
2023/06/18 03:10:57;;;;;;;7.40;6.70;;;;;;;;;;5081879;28;20204;-69
2023/06/18 03:13:23;;;;;;;6.88;6.38;;;;;;;;;;5081791;28;20220;-69
2023/06/18 03:15:50;;;;;;;9.23;6.85;;;;;;;;;;5082077;28;20412;-69
2023/06/18 03:18:18;;;;;;;7.70;6.75;;;;;;;;;;5081454;28;20570;-69
2023/06/18 03:20:44;;;;;;;7.95;7.15;;;;;;;;;;5081697;28;20492;-69
2023/06/18 03:23:11;;;;;;;8.73;6.85;;;;;;;;;;5081448;28;20493;-69
2023/06/18 03:25:37;;;;;;;8.43;7.55;;;;;;;;;;5081659;28;20250;-69
2023/06/18 03:28:03;;;;;;;8.95;8.07;;;;;;;;;;5081435;28;20223;-69
2023/06/18 03:30:29;;;;;;;8.13;7.32;;;;;;;;;;5081678;28;20444;-69
2023/06/18 03:32:56;;;;;;;11.27;8.30;;;;;;;;;;5081398;28;20217;-69
2023/06/18 03:35:24;;;;;;;8.98;7.55;;;;;;;;;;5084494;28;20196;-69
2023/06/18 03:37:50;;;;;;;9.00;8.10;;;;;;;;;;5085039;28;20651;-69
2023/06/18 03:40:16;;;;;;;12.32;8.10;;;;;;;;;;5085403;28;20196;-69
2023/06/18 03:42:43;;;;;;;8.85;7.20;;;;;;;;;;5085155;28;20203;-69
2023/06/18 03:45:09;;;;;;;9.18;7.82;;;;;;;;;;5085304;28;20197;-69
2023/06/18 03:47:36;;;;;;;8.93;8.02;;;;;;;;;;5085011;28;20261;-69
2023/06/18 03:50:02;;;;;;;8.02;7.25;;;;;;;;;;5085129;28;20420;-69
2023/06/18 03:52:29;;;;;;;8.07;7.32;;;;;;;;;;5085242;28;20211;-69
2023/06/18 03:54:56;;;;;;;9.60;7.13;;;;;;;;;;5085133;28;20224;-69
2023/06/18 03:57:22;;;;;;;8.73;7.82;;;;;;;;;;5084908;28;20235;-69
2023/06/18 03:59:51;;;;;;;7.88;7.13;;;;;;;;;;5084781;28;20192;-69
2023/06/18 04:02:17;;;;;;;9.65;7.38;;;;;;;;;;5084731;28;20196;-69
2023/06/18 04:04:44;;;;;;;8.65;7.53;;;;;;;;;;5084770;28;20196;-69
2023/06/18 04:07:10;;;;;;;8.68;7.88;;;;;;;;;;5084890;28;20524;-69
2023/06/18 04:09:38;;;;;;;9.90;7.82;;;;;;;;;;5084665;28;20197;-69
2023/06/18 04:12:04;;;;;;;9.60;7.72;;;;;;;;;;5084756;28;20196;-69
2023/06/18 04:14:31;;;;;;;9.02;8.13;;;;;;;;;;5084464;28;20228;-69
2023/06/18 04:16:57;;;;;;;11.65;7.55;;;;;;;;;;5084583;28;20268;-71
2023/06/18 04:19:23;;;;;;;8.73;7.95;;;;;;;;;;5084342;28;20510;-71
2023/06/18 04:21:49;;;;;;;9.15;7.88;;;;;;;;;;5084766;28;20200;-71
2023/06/18 04:24:16;;;;;;;8.68;7.93;;;;;;;;;;5084566;28;20193;-71
2023/06/18 04:26:43;;;;;;;9.25;8.35;;;;;;;;;;5084732;28;20197;-71
2023/06/18 04:29:10;;;;;;;9.13;8.32;;;;;;;;;;5084363;28;20200;-71
2023/06/18 04:31:36;;;;;;;11.15;8.57;;;;;;;;;;5084193;28;20196;-71
2023/06/18 04:34:02;;;;;;;9.05;8.15;;;;;;;;;;5084191;28;20531;-71
2023/06/18 04:36:28;;;;;;;9.45;8.55;;;;;;;;;;5084292;28;20196;-71
2023/06/18 04:38:55;;;;;;;9.60;8.60;;;;;;;;;;5084203;28;20196;-71
2023/06/18 04:41:21;;;;;;;10.50;8.27;;;;;;;;;;5084381;28;20212;-71
2023/06/18 04:43:48;;;;;;;9.18;7.90;;;;;;;;;;5084109;28;20196;-72
2023/06/18 04:46:15;;;;;;;9.23;8.15;;;;;;;;;;5083136;28;20235;-71
2023/06/18 04:48:41;;;;;;;11.45;8.85;;;;;;;;;;5083863;28;20201;-71
2023/06/18 04:51:08;;;;;;;9.52;8.50;;;;;;;;;;5084374;28;20242;-71
2023/06/18 04:53:34;;;;;;;9.30;8.30;;;;;;;;;;5083992;28;20287;-71
2023/06/18 04:56:01;;;;;;;12.60;8.27;;;;;;;;;;5084045;28;20458;-71
2023/06/18 04:58:27;;;;;;;8.95;8.15;;;;;;;;;;5084082;28;20267;-71
2023/06/18 05:00:55;;;;;;;10.65;8.68;;;;;;;;;;5083697;28;20512;-71
2023/06/18 05:03:21;;;;;;;9.77;7.97;;;;;;;;;;5084084;28;20197;-71
2023/06/18 05:05:47;;;;;;;9.30;8.27;;;;;;;;;;5083985;28;20249;-71
2023/06/18 05:08:14;;;;;;;10.02;8.57;;;;;;;;;;5083553;28;20204;-71
2023/06/18 05:10:40;;;;;;;11.50;8.48;;;;;;;;;;5083868;28;20344;-71
2023/06/18 05:13:06;;;;;;;11.43;8.48;;;;;;;;;;5083450;28;20197;-71
2023/06/18 05:15:32;;;;;;;9.38;8.50;;;;;;;;;;5083417;28;20504;-71
2023/06/18 05:18:00;;;;;;;9.60;8.30;;;;;;;;;;5083589;28;20242;-71
2023/06/18 05:20:27;;;;;;;9.52;8.43;;;;;;;;;;5083488;28;20243;-71
2023/06/18 05:22:53;;;;;;;8.98;8.10;;;;;;;;;;5083538;28;20197;-71
2023/06/18 05:25:19;;;;;;;9.75;8.73;;;;;;;;;;5083287;28;20185;-71
2023/06/18 05:27:45;;;;;;;9.75;8.50;;;;;;;;;;5083045;28;20262;-71
2023/06/18 05:30:12;;;;;;;21.60;12.43;;;;;;;;;;5083166;28;20196;-72
2023/06/18 05:32:39;;;;;;;18.35;14.57;;;;;;;;;;5083701;28;20215;-72
2023/06/18 05:35:07;;;;;;;23.13;13.80;;;;;;;;;;5083204;28;20220;-72
2023/06/18 05:37:33;;;;;;;14.68;10.45;;;;;;;;;;5083310;28;20204;-71
2023/06/18 05:40:00;;;;;;;11.00;9.50;;;;;;;;;;5083355;28;20205;-71
2023/06/18 05:42:27;;;;;;;13.68;10.75;;;;;;;;;;5083134;28;20200;-71
2023/06/18 05:44:54;;;;;;;10.00;9.00;;;;;;;;;;5082871;28;20204;-71
2023/06/18 05:47:20;;;;;;;9.10;8.07;;;;;;;;;;5082875;28;20233;-71
2023/06/18 05:49:47;;;;;;;11.50;8.75;;;;;;;;;;5082681;28;20223;-72
2023/06/18 05:52:14;;;;;;;10.30;9.30;;;;;;;;;;5083137;28;20242;-72
2023/06/18 05:54:40;;;;;;;9.43;8.52;;;;;;;;;;5083256;28;20220;-71
2023/06/18 05:57:07;;;;;;;14.02;10.20;;;;;;;;;;5082832;28;20444;-71
2023/06/18 05:59:33;;;;;;;11.30;10.25;;;;;;;;;;5083029;28;20197;-71
2023/06/18 06:01:59;;;;;;;11.60;9.07;;;;;;;;;;5083264;28;20197;-71
2023/06/18 06:04:25;;;;;;;11.45;10.23;;;;;;;;;;5082724;28;20208;-71
2023/06/18 06:06:52;;;;;;;15.23;8.80;;;;;;;;;;5082830;28;20203;-71
2023/06/18 06:09:19;;;;;;;11.60;9.68;;;;;;;;;;5082304;28;20286;-71
2023/06/18 06:11:46;;;;;;;12.82;9.48;;;;;;;;;;5082724;28;20242;-71
2023/06/18 06:14:12;;;;;;;9.88;8.88;;;;;;;;;;5082507;28;20228;-71
2023/06/18 06:16:38;;;;;;;10.93;9.23;;;;;;;;;;5082483;28;20201;-72
2023/06/18 06:19:04;;;;;;;12.00;8.98;;;;;;;;;;5082261;28;20203;-72
2023/06/18 06:21:33;;;;;;;9.35;8.45;;;;;;;;;;5082567;28;20456;-72
2023/06/18 06:23:59;;;;;;;10.88;9.10;;;;;;;;;;5082561;28;20434;-72
2023/06/18 06:26:27;;;;;;;11.88;8.57;;;;;;;;;;5082860;28;20203;-72
2023/06/18 06:28:53;;;;;;;10.27;9.35;;;;;;;;;;5082275;28;20216;-72
2023/06/18 06:31:20;;;;;;;10.25;8.10;;;;;;;;;;5082550;28;20242;-72
2023/06/18 06:33:46;;;;;;;10.65;9.65;;;;;;;;;;5082387;28;20495;-72
2023/06/18 06:36:12;;;;;;;10.23;9.32;;;;;;;;;;5082444;28;20267;-72
2023/06/18 06:38:39;;;;;;;10.80;8.25;;;;;;;;;;5082203;28;20389;-72
2023/06/18 06:41:05;;;;;;;11.32;10.13;;;;;;;;;;5082182;28;20265;-60
2023/06/18 06:43:32;;;;;;;10.57;8.82;;;;;;;;;;5082302;28;20258;-59
2023/06/18 06:45:59;;;;;;;11.20;9.10;;;;;;;;;;5082215;28;20374;-60
2023/06/18 06:48:25;;;;;;;9.55;8.38;;;;;;;;;;5082262;28;20657;-60
2023/06/18 06:50:53;;;;;;;9.57;8.35;;;;;;;;;;5082350;28;20523;-60
2023/06/18 06:53:19;;;;;;;10.35;9.32;;;;;;;;;;5082100;28;20196;-60
2023/06/18 06:55:46;;;;;;;9.73;8.73;;;;;;;;;;5081780;28;20262;-59
2023/06/18 06:58:12;;;;;;;12.52;10.63;;;;;;;;;;5082075;28;20431;-60
2023/06/18 07:00:39;;;;;;;15.80;11.57;;;;;;;;;;5082164;28;20519;-59
2023/06/18 07:03:06;;;;;;;10.35;9.35;;;;;;;;;;5082032;28;20196;-59
2023/06/18 07:05:32;;;;;;;10.73;8.77;;;;;;;;;;5082024;28;20439;-59
2023/06/18 07:07:59;;;;;;;8.85;8.07;;;;;;;;;;5081581;28;20204;-59
2023/06/18 07:10:25;;;;;;;11.38;7.63;;;;;;;;;;5084903;28;20205;-60
2023/06/18 07:12:51;;;;;;;9.98;9.02;;;;;;;;;;5085451;28;20196;-60
2023/06/18 07:15:17;;;;;;;13.88;12.20;;;;;;;;;;5085376;28;20216;-60
2023/06/18 07:17:45;;;;;;;10.60;9.50;;;;;;;;;;5085437;28;20234;-59
2023/06/18 07:20:11;;;;;;;9.75;8.10;;;;;;;;;;5085469;28;20196;-60
2023/06/18 07:22:38;;;;;;;8.38;7.55;;;;;;;;;;5085202;28;20242;-61
2023/06/18 07:25:04;;;;;;;8.63;7.75;;;;;;;;;;5085293;28;20188;-60
2023/06/18 07:27:31;;;;;;;10.75;8.68;;;;;;;;;;5085128;28;20231;-60
2023/06/18 07:29:57;;;;;;;8.93;8.02;;;;;;;;;;5085132;28;20222;-61
2023/06/18 07:32:23;;;;;;;9.07;8.27;;;;;;;;;;5085202;28;20310;-60
2023/06/18 07:34:51;;;;;;;9.52;7.28;;;;;;;;;;5085185;28;20220;-73
2023/06/18 07:37:17;;;;;;;8.30;7.60;;;;;;;;;;5085069;28;20196;-73
2023/06/18 07:39:43;;;;;;;8.82;7.32;;;;;;;;;;5084581;28;20196;-73
2023/06/18 07:42:09;;;;;;;8.90;7.85;;;;;;;;;;5084401;28;20196;-73
2023/06/18 07:44:36;;;;;;;9.10;8.20;;;;;;;;;;5085097;28;20276;-73
2023/06/18 07:47:02;;;;;;;13.82;7.22;;;;;;;;;;5085072;28;20267;-73
2023/06/18 07:49:28;;;;;;;8.75;7.50;;;;;;;;;;5084453;28;20193;-73
2023/06/18 07:51:56;;;;;;;11.13;7.07;;;;;;;;;;5084551;28;20208;-72
2023/06/18 07:54:22;;;;;;;8.25;7.45;;;;;;;;;;5084458;28;20219;-72
2023/06/18 07:56:49;;;;;;;7.55;6.90;;;;;;;;;;5084407;28;20200;-72
2023/06/18 07:59:15;;;;;;;9.10;6.38;;;;;;;;;;5084249;28;20196;-72
2023/06/18 08:01:41;;;;;;;9.23;7.53;;;;;;;;;;5084341;28;20200;-72
2023/06/18 08:04:08;;;;;;;7.75;6.93;;;;;;;;;;5084433;28;20201;-72
2023/06/18 08:06:34;;;;;;;6.93;6.32;;;;;;;;;;5084404;28;20211;-72
2023/06/18 08:09:02;;;;;;;7.38;6.78;;;;;;;;;;5084181;28;20211;-72
2023/06/18 08:11:28;;;;;;;7.20;6.30;;;;;;;;;;5084432;28;20520;-72
2023/06/18 08:13:54;;;;;;;7.60;6.35;;;;;;;;;;5084455;28;20395;-72
2023/06/18 08:16:22;;;;;;;7.70;6.43;;;;;;;;;;5084259;28;20216;-72
2023/06/18 08:18:48;;;;;;;6.70;6.20;;;;;;;;;;5083994;28;20322;-72
2023/06/18 08:21:15;;;;;;;7.90;6.35;;;;;;;;;;5082909;28;20200;-72
2023/06/18 08:23:41;;;;;;;6.75;6.20;;;;;;;;;;5084297;28;20197;-72
2023/06/18 08:26:08;;;;;;;6.47;5.97;;;;;;;;;;5084251;28;20200;-72
2023/06/18 08:28:35;;;;;;;6.38;5.88;;;;;;;;;;5083888;28;20262;-72
2023/06/18 08:31:01;;;;;;;6.95;6.35;;;;;;;;;;5083990;28;20196;-72
2023/06/18 08:33:28;;;;;;;7.90;5.82;;;;;;;;;;5083979;28;20241;-72
2023/06/18 08:35:54;;;;;;;7.10;6.40;;;;;;;;;;5084296;28;20245;-72
2023/06/18 08:38:21;;;;;;;6.38;5.82;;;;;;;;;;5083624;28;20510;-72
2023/06/18 08:40:49;;;;;;;7.97;5.88;;;;;;;;;;5083828;28;20491;-72
2023/06/18 08:43:21;;;;;;;6.20;5.60;;;;;;;;;;5083788;28;20387;-72
2023/06/18 08:45:48;;;;;;;6.53;6.00;;;;;;;;;;5083611;28;20200;-72
2023/06/18 08:48:14;;;;;;;7.18;6.45;;;;;;;;;;5083274;28;20426;-72
2023/06/18 08:50:41;;;;;;;7.00;6.00;;;;;;;;;;5083432;28;20202;-72
2023/06/18 08:53:12;;;;;;;8.50;6.35;;;;;;;;;;5083739;28;20234;-72
2023/06/18 08:55:40;;;;;;;5.80;5.45;;;;;;;;;;5083437;28;20220;-72
2023/06/18 08:58:10;;;;;;;7.28;5.45;;;;;;;;;;5083176;28;20206;-72
2023/06/18 09:00:37;;;;;;;6.05;5.63;;;;;;;;;;5083214;28;20196;-72
2023/06/18 09:03:04;;;;;;;9.32;5.70;;;;;;;;;;5083288;28;20210;-72
2023/06/18 09:05:31;;;;;;;6.50;5.90;;;;;;;;;;5083454;28;20602;-72
2023/06/18 09:07:57;;;;;;;8.27;6.10;;;;;;;;;;5082895;28;20204;-72
2023/06/18 09:10:25;;;;;;;6.80;6.20;;;;;;;;;;5083102;28;20518;-73
2023/06/18 09:12:51;;;;;;;7.13;5.80;;;;;;;;;;5083268;28;20196;-73
2023/06/18 09:15:17;;;;;;;6.22;5.72;;;;;;;;;;5082804;28;20238;-73
2023/06/18 09:17:50;;;;;;;10.98;5.82;;;;;;;;;;5082779;28;20200;-73
2023/06/18 09:20:18;;;;;;;5.45;4.95;;;;;;;;;;5083097;28;20195;-73
2023/06/18 09:22:45;;;;;;;5.85;5.32;;;;;;;;;;5083012;28;20234;-73
2023/06/18 09:25:12;;;;;;;5.75;5.20;;;;;;;;;;5083073;28;20204;-73
2023/06/18 09:27:40;;;;;;;6.88;5.68;;;;;;;;;;5082479;28;20220;-73
2023/06/18 09:30:06;;;;;;;6.25;5.50;;;;;;;;;;5082780;28;20196;-73
2023/06/18 09:32:45;;;;;;;5.63;5.13;;;;;;;;;;5082464;28;20203;-73
2023/06/18 09:35:14;;;;;;;5.70;5.30;;;;;;;;;;5082746;28;20385;-73
2023/06/18 09:37:40;;;;;;;5.30;4.80;;;;;;;;;;5082497;28;20196;-73
2023/06/18 09:40:08;;;;;;;6.15;5.55;;;;;;;;;;5082428;28;20200;-73
2023/06/18 09:42:34;;;;;;;5.32;4.88;;;;;;;;;;5082881;28;20962;-73
2023/06/18 09:45:01;;;;;;;5.63;5.15;;;;;;;;;;5082967;28;20192;-73
2023/06/18 09:47:28;;;;;;;7.97;5.15;;;;;;;;;;5082533;28;20218;-73
2023/06/18 09:49:54;;;;;;;5.35;4.95;;;;;;;;;;5082417;28;20387;-73
2023/06/18 09:52:23;;;;;;;6.00;5.25;;;;;;;;;;5082574;28;20196;-73
2023/06/18 09:54:49;;;;;;;5.00;4.50;;;;;;;;;;5082189;28;20220;-72
2023/06/18 09:57:16;;;;;;;4.80;4.40;;;;;;;;;;5082569;28;20206;-72
2023/06/18 09:59:43;;;;;;;5.93;4.97;;;;;;;;;;5082384;28;20203;-73
2023/06/18 10:02:12;;;;;;;4.95;4.55;;;;;;;;;;5082464;28;20200;-73
2023/06/18 10:04:39;;;;;;;4.07;3.83;;;;;;;;;;5082291;28;20200;-73
2023/06/18 10:07:07;;;;;;;4.95;4.40;;;;;;;;;;5082105;28;21835;-73
2023/06/18 10:09:36;;;;;;;4.97;4.47;;;;;;;;;;5082509;28;20275;-73
2023/06/18 10:12:03;;;;;;;5.55;5.13;;;;;;;;;;5082358;28;20196;-73
2023/06/18 10:14:30;;;;;;;4.88;4.30;;;;;;;;;;5082320;28;20196;-73
2023/06/18 10:16:59;;;;;;;4.70;4.40;;;;;;;;;;5082016;28;20227;-73
2023/06/18 10:19:27;;;;;;;6.15;4.30;;;;;;;;;;5081995;28;20242;-72
2023/06/18 10:21:57;;;;;;;4.68;4.10;;;;;;;;;;5081944;28;20203;-72
2023/06/18 10:24:25;;;;;;;5.10;4.60;;;;;;;;;;5082249;28;20192;-72
2023/06/18 10:26:52;;;;;;;5.47;4.97;;;;;;;;;;5074284;28;20189;-74
2023/06/18 10:29:20;;;;;;;4.40;4.10;;;;;;;;;;5080682;28;20208;-74
2023/06/18 10:31:46;;;;;;;7.63;4.50;;;;;;;;;;5081877;28;20526;-74
2023/06/18 10:34:13;;;;;;;5.15;4.85;;;;;;;;;;5081759;28;20557;-74
2023/06/18 10:36:40;;;;;;;5.13;4.65;;;;;;;;;;5071644;28;20516;-74
2023/06/18 10:39:06;;;;;;;6.28;4.88;;;;;;;;;;5060884;28;20246;-74
2023/06/18 10:41:32;;;;;;;6.78;4.45;;;;;;;;;;5060687;28;20496;-75
2023/06/18 10:44:00;;;;;;;5.15;4.75;;;;;;;;;;5060174;28;20766;-74
2023/06/18 10:46:28;;;;;;;7.10;4.60;;;;;;;;;;5062113;28;20192;-74
2023/06/18 10:49:12;;;;;;;6.30;4.85;;;;;;;;;;5060556;28;20196;-74
2023/06/18 10:51:38;;;;;;;5.22;4.22;;;;;;;;;;5061501;28;20550;-74
2023/06/18 10:54:19;;;;;;;5.03;4.63;;;;;;;;;;5061201;28;20512;-74
2023/06/18 10:56:50;;;;;;;4.93;4.47;;;;;;;;;;5058305;28;20220;-74
2023/06/18 10:59:32;;;;;;;4.80;4.32;;;;;;;;;;5061303;28;20197;-75
2023/06/18 11:01:59;;;;;;;6.75;4.30;;;;;;;;;;5061761;28;20196;-75
2023/06/18 11:04:25;;;;;;;4.80;4.47;;;;;;;;;;5061777;28;20204;-74
2023/06/18 11:06:52;;;;;;;4.90;4.50;;;;;;;;;;5061991;28;20204;-74
2023/06/18 11:09:18;;;;;;;4.43;4.13;;;;;;;;;;5061737;28;20209;-75
2023/06/18 11:11:49;;;;;;;7.28;4.50;;;;;;;;;;5061849;28;20193;-74
2023/06/18 11:14:20;;;;;;;5.88;4.50;;;;;;;;;;5061842;28;20233;-75
2023/06/18 11:17:02;;;;;;;4.70;4.20;;;;;;;;;;5062090;28;20216;-74
2023/06/18 11:19:28;;;;;;;5.18;4.78;;;;;;;;;;5061363;28;20196;-74
2023/06/18 11:21:54;;;;;;;5.00;4.60;;;;;;;;;;5061533;28;20204;-74
2023/06/18 11:24:20;;;;;;;5.75;4.80;;;;;;;;;;5080438;28;20204;-75
2023/06/18 11:26:47;;;;;;;6.22;5.10;;;;;;;;;;5081968;28;20538;-74
2023/06/18 11:29:13;;;;;;;4.90;4.50;;;;;;;;;;5081589;28;20216;-74
2023/06/18 11:31:47;;;;;;;5.68;5.18;;;;;;;;;;5081904;28;20200;-74
2023/06/18 11:34:13;;;;;;;4.63;4.43;;;;;;;;;;5081623;28;20234;-74
2023/06/18 11:36:41;;;;;;;5.50;4.60;;;;;;;;;;5081512;28;20246;-74
2023/06/18 11:39:08;;;;;;;6.03;5.00;;;;;;;;;;5081498;28;20202;-74
2023/06/18 11:41:34;;;;;;;6.10;4.82;;;;;;;;;;5081810;28;20466;-74
2023/06/18 11:44:00;;;;;;;6.80;4.80;;;;;;;;;;5081769;28;20196;-74
2023/06/18 11:46:28;;;;;;;4.95;4.55;;;;;;;;;;5081663;28;20198;-74
2023/06/18 11:48:55;;;;;;;6.00;4.20;;;;;;;;;;5081499;28;20196;-74
2023/06/18 11:51:24;;;;;;;5.82;4.88;;;;;;;;;;5081546;28;20657;-74
2023/06/18 11:53:50;;;;;;;6.05;4.45;;;;;;;;;;5081702;28;20518;-74
2023/06/18 11:56:16;;;;;;;4.95;4.43;;;;;;;;;;5083955;28;20228;-74
2023/06/18 11:58:43;;;;;;;4.78;4.47;;;;;;;;;;5084796;28;20197;-74
2023/06/18 12:01:09;;;;;;;4.45;4.20;;;;;;;;;;5085151;28;20202;-74
2023/06/18 12:03:35;;;;;;;4.28;3.97;;;;;;;;;;5084998;28;20196;-74
2023/06/18 12:06:13;;;;;;;4.30;4.00;;;;;;;;;;5084708;28;20491;-74
2023/06/18 12:08:43;;;;;;;4.47;4.18;;;;;;;;;;5084691;28;20234;-74
2023/06/18 12:11:13;;;;;;;4.97;4.05;;;;;;;;;;5085110;28;20203;-74
2023/06/18 12:13:42;;;;;;;4.15;3.95;;;;;;;;;;5084963;28;20208;-74
2023/06/18 12:16:11;;;;;;;3.97;3.78;;;;;;;;;;5084764;28;20216;-74
2023/06/18 12:18:40;;;;;;;4.63;4.30;;;;;;;;;;5084964;28;20241;-73
2023/06/18 12:21:07;;;;;;;4.18;3.97;;;;;;;;;;5084847;28;20241;-73
2023/06/18 12:23:37;;;;;;;4.55;4.13;;;;;;;;;;5084855;28;20266;-74
2023/06/18 12:26:03;;;;;;;4.93;4.43;;;;;;;;;;5084590;28;20432;-74
2023/06/18 12:28:33;;;;;;;5.50;4.10;;;;;;;;;;5084306;28;20382;-74
2023/06/18 12:31:06;;;;;;;4.68;4.10;;;;;;;;;;5084196;28;20271;-74
2023/06/18 12:33:37;;;;;;;4.53;4.18;;;;;;;;;;5084136;28;20204;-75
2023/06/18 12:36:04;;;;;;;3.85;3.65;;;;;;;;;;5083947;28;20438;-75
2023/06/18 12:38:40;;;;;;;4.57;4.28;;;;;;;;;;5083954;28;20242;-74
2023/06/18 12:41:06;;;;;;;4.28;3.85;;;;;;;;;;5083887;28;20242;-74
2023/06/18 12:43:38;;;;;;;3.80;3.60;;;;;;;;;;5083744;28;20204;-74
2023/06/18 12:46:04;;;;;;;5.10;4.20;;;;;;;;;;5082614;28;20204;-74
2023/06/18 12:48:37;;;;;;;4.22;3.95;;;;;;;;;;5082579;28;20242;-74
2023/06/18 12:51:04;;;;;;;4.90;4.47;;;;;;;;;;5074969;28;20192;-74
2023/06/18 12:53:31;;;;;;;4.15;3.80;;;;;;;;;;5062392;28;20205;-74
2023/06/18 12:56:15;;;;;;;4.35;3.97;;;;;;;;;;5063087;28;20220;-74
2023/06/18 12:58:43;;;;;;;3.97;3.78;;;;;;;;;;5062702;28;20200;-74
2023/06/18 13:01:10;;;;;;;4.55;3.90;;;;;;;;;;5061869;28;20197;-74
2023/06/18 13:03:36;;;;;;;6.18;4.03;;;;;;;;;;5061676;28;20455;-74
2023/06/18 13:06:02;;;;;;;4.53;4.13;;;;;;;;;;5061565;28;20227;-74
2023/06/18 13:08:29;;;;;;;4.60;3.53;;;;;;;;;;5060553;28;20439;-75
2023/06/18 13:10:56;;;;;;;4.10;3.80;;;;;;;;;;5061552;28;20226;-74
2023/06/18 13:13:23;;;;;;;6.35;4.10;;;;;;;;;;5061411;28;20276;-74
2023/06/18 13:15:52;;;;;;;4.95;4.00;;;;;;;;;;5063081;28;20203;-74
2023/06/18 13:18:18;;;;;;;3.92;3.72;;;;;;;;;;5063029;28;20197;-74
2023/06/18 13:20:45;;;;;;;4.82;4.53;;;;;;;;;;5063418;28;20196;-74
2023/06/18 13:23:11;;;;;;;3.75;3.53;;;;;;;;;;5063187;28;20196;-74
2023/06/18 13:25:38;;;;;;;4.28;3.60;;;;;;;;;;5063373;28;20201;-74
2023/06/18 13:28:04;;;;;;;4.30;3.90;;;;;;;;;;5062937;28;20263;-72
2023/06/18 13:30:32;;;;;;;4.22;3.92;;;;;;;;;;5063243;28;20203;-72
2023/06/18 13:32:58;;;;;;;4.57;4.10;;;;;;;;;;5062959;28;20204;-73
2023/06/18 13:35:25;;;;;;;5.18;4.32;;;;;;;;;;5062558;28;20200;-73
2023/06/18 13:37:51;;;;;;;4.13;3.92;;;;;;;;;;5062276;28;20223;-72
2023/06/18 13:40:18;;;;;;;4.70;4.40;;;;;;;;;;5062587;28;20239;-73
2023/06/18 13:42:44;;;;;;;4.47;4.10;;;;;;;;;;5062721;28;20239;-73
2023/06/18 13:45:10;;;;;;;3.95;3.78;;;;;;;;;;5062472;28;20204;-73
2023/06/18 13:47:38;;;;;;;4.43;4.03;;;;;;;;;;5062763;28;20193;-74
2023/06/18 13:50:05;;;;;;;4.70;4.38;;;;;;;;;;5062739;28;20504;-73
2023/06/18 13:52:31;;;;;;;4.70;4.40;;;;;;;;;;5062751;28;20508;-73
2023/06/18 13:54:57;;;;;;;5.47;4.00;;;;;;;;;;5062996;28;20403;-73
2023/06/18 13:57:24;;;;;;;4.75;4.43;;;;;;;;;;5062342;28;20277;-73
2023/06/18 13:59:50;;;;;;;4.57;4.18;;;;;;;;;;5062110;28;20197;-73
2023/06/18 14:02:16;;;;;;;4.40;4.13;;;;;;;;;;5062493;28;20203;-74
2023/06/18 14:04:44;;;;;;;5.18;4.57;;;;;;;;;;5062320;28;20200;-74
2023/06/18 14:07:10;;;;;;;4.78;4.38;;;;;;;;;;5062334;28;20205;-74
2023/06/18 14:09:37;;;;;;;4.50;4.20;;;;;;;;;;5062543;28;20534;-74
2023/06/18 14:12:04;;;;;;;4.63;4.32;;;;;;;;;;5062585;28;20203;-74
2023/06/18 14:14:31;;;;;;;4.50;4.20;;;;;;;;;;5062502;28;20204;-74
2023/06/18 14:16:57;;;;;;;4.55;4.28;;;;;;;;;;5062405;28;20227;-74
2023/06/18 14:19:24;;;;;;;4.47;4.18;;;;;;;;;;5061154;28;20197;-74
2023/06/18 14:21:52;;;;;;;4.50;4.30;;;;;;;;;;5062267;28;20546;-74
2023/06/18 14:24:18;;;;;;;5.32;4.72;;;;;;;;;;5062435;28;20219;-74
2023/06/18 14:26:45;;;;;;;4.82;4.40;;;;;;;;;;5062267;28;20197;-74
2023/06/18 14:29:12;;;;;;;4.43;4.13;;;;;;;;;;5062039;28;20238;-74
2023/06/18 14:31:38;;;;;;;4.45;4.05;;;;;;;;;;5062241;28;20550;-74
2023/06/18 14:34:05;;;;;;;4.95;4.50;;;;;;;;;;5062154;28;20197;-74
2023/06/18 14:36:32;;;;;;;4.88;4.57;;;;;;;;;;5062136;28;20240;-74
2023/06/18 14:39:00;;;;;;;5.40;5.00;;;;;;;;;;5062026;28;20197;-74
2023/06/18 14:41:27;;;;;;;4.85;4.50;;;;;;;;;;5062159;28;20504;-74